Time;durP1;ratioP1;P1;durP2;ratioP2;P2;SDS_P1;SDS_P2;PMS_P1;PMS_P2;Temp;Humidity;BMP_temperature;BMP_pressure;BME280_temperature;BME280_humidity;BME280_pressure;Samples;Min_cycle;Max_cycle;Signal;HPM_P1;HPM_P2
2021/04/23 00:00:51;;;;;;;2.80;1.80;;;19.20;45.10;;;;;;5135673;27;20050;-38
2021/04/23 00:03:32;;;;;;;2.80;2.00;;;19.10;45.00;;;;;;5135697;27;20043;-38
2021/04/23 00:06:17;;;;;;;2.20;1.80;;;19.20;45.10;;;;;;5133207;27;20048;-39
2021/04/23 00:08:51;;;;;;;3.15;2.00;;;19.10;45.00;;;;;;5131929;27;20043;-38
2021/04/23 00:11:22;;;;;;;2.10;1.90;;;19.10;45.00;;;;;;5134214;27;20130;-39
2021/04/23 00:13:49;;;;;;;2.88;2.10;;;19.10;45.60;;;;;;5133874;27;20059;-38
2021/04/23 00:16:16;;;;;;;3.00;2.10;;;19.20;45.10;;;;;;5133130;27;20043;-39
2021/04/23 00:18:43;;;;;;;2.33;1.67;;;19.10;45.00;;;;;;5135350;27;20532;-38
2021/04/23 00:21:12;;;;;;;2.47;1.75;;;19.10;45.00;;;;;;5132823;27;20050;-38
2021/04/23 00:23:40;;;;;;;3.42;1.90;;;19.10;45.00;;;;;;5135273;27;20039;-39
2021/04/23 00:26:08;;;;;;;3.45;2.13;;;19.10;45.00;;;;;;5132428;27;20048;-39
2021/04/23 00:28:36;;;;;;;2.65;1.70;;;19.10;45.00;;;;;;5115586;27;20044;-39
2021/04/23 00:31:04;;;;;;;2.80;1.80;;;19.10;45.00;;;;;;5117329;27;20055;-38
2021/04/23 00:33:31;;;;;;;2.20;1.52;;;19.10;45.00;;;;;;5117513;27;20126;-38
2021/04/23 00:35:58;;;;;;;2.15;1.67;;;19.10;45.00;;;;;;5129634;27;20051;-38
2021/04/23 00:38:27;;;;;;;3.35;1.98;;;19.10;45.00;;;;;;5117332;28;20052;-38
2021/04/23 00:40:59;;;;;;;2.03;1.70;;;19.10;45.00;;;;;;5116644;27;20043;-38
2021/04/23 00:43:30;;;;;;;2.25;1.80;;;19.10;45.00;;;;;;5117003;27;20084;-38
2021/04/23 00:45:57;;;;;;;2.15;1.70;;;19.10;45.00;;;;;;5115696;27;20069;-38
2021/04/23 00:48:25;;;;;;;2.67;1.90;;;19.10;45.00;;;;;;5132738;27;20047;-38
2021/04/23 00:51:07;;;;;;;2.83;1.88;;;19.10;45.00;;;;;;5134737;27;20047;-38
2021/04/23 00:53:39;;;;;;;2.60;1.75;;;19.10;45.00;;;;;;5134728;27;20130;-38
2021/04/23 00:56:09;;;;;;;3.78;1.90;;;19.10;45.00;;;;;;5118801;27;20050;-39
2021/04/23 00:58:36;;;;;;;2.20;2.00;;;19.10;45.00;;;;;;5130749;27;20384;-39
2021/04/23 01:01:10;;;;;;;3.58;1.88;;;19.10;45.00;;;;;;5132469;27;20085;-38
2021/04/23 01:03:38;;;;;;;3.70;1.80;;;19.10;45.00;;;;;;5131977;27;20054;-39
2021/04/23 01:06:17;;;;;;;3.22;2.10;;;19.10;45.00;;;;;;5134920;27;20043;-38
2021/04/23 01:08:46;;;;;;;2.97;2.10;;;19.10;45.00;;;;;;5132994;27;20051;-38
2021/04/23 01:11:16;;;;;;;3.20;1.90;;;19.10;45.00;;;;;;5130834;27;20053;-38
2021/04/23 01:13:43;;;;;;;3.22;1.85;;;19.10;45.00;;;;;;5132857;27;20047;-38
2021/04/23 01:16:13;;;;;;;2.50;1.80;;;19.10;45.00;;;;;;5130691;27;20050;-38
2021/04/23 01:18:41;;;;;;;2.80;1.95;;;19.10;45.00;;;;;;5131332;27;20039;-38
2021/04/23 01:21:22;;;;;;;2.10;1.60;;;19.10;44.90;;;;;;5132771;27;20100;-40
2021/04/23 01:23:50;;;;;;;2.65;1.80;;;19.10;45.00;;;;;;5131784;27;20047;-38
2021/04/23 01:26:19;;;;;;;2.42;1.75;;;19.10;45.00;;;;;;5133759;27;20054;-38
2021/04/23 01:28:49;;;;;;;2.40;1.98;;;19.10;44.90;;;;;;5124896;27;20078;-38
2021/04/23 01:31:18;;;;;;;3.33;1.90;;;19.10;44.90;;;;;;5116147;27;20059;-38
2021/04/23 01:33:48;;;;;;;2.95;1.77;;;19.10;45.00;;;;;;5115625;27;20126;-38
2021/04/23 01:36:16;;;;;;;2.28;1.80;;;19.10;44.90;;;;;;5120485;27;20044;-38
2021/04/23 01:38:45;;;;;;;3.58;1.90;;;19.10;44.90;;;;;;5116949;27;20044;-38
2021/04/23 01:41:13;;;;;;;3.58;1.95;;;19.10;44.90;;;;;;5116971;27;20059;-39
2021/04/23 01:43:41;;;;;;;2.40;1.85;;;19.10;44.90;;;;;;5116867;27;20035;-39
2021/04/23 01:46:09;;;;;;;1.85;1.60;;;19.10;44.90;;;;;;5119318;27;20047;-39
2021/04/23 01:48:36;;;;;;;3.03;1.70;;;19.10;44.90;;;;;;5126879;27;20051;-38
2021/04/23 01:51:07;;;;;;;6.05;1.77;;;19.10;45.00;;;;;;5108684;27;20039;-39
2021/04/23 01:53:35;;;;;;;2.40;1.60;;;19.10;44.90;;;;;;5128595;27;20047;-38
2021/04/23 01:56:03;;;;;;;3.20;1.98;;;19.10;44.90;;;;;;5114781;27;20231;-39
2021/04/23 01:58:31;;;;;;;2.78;1.75;;;19.10;44.90;;;;;;5126013;27;20092;-38
2021/04/23 02:00:58;;;;;;;3.92;2.10;;;19.10;44.90;;;;;;5125999;27;20070;-39
2021/04/23 02:03:25;;;;;;;1.83;1.70;;;19.10;44.90;;;;;;5116832;27;20048;-39
2021/04/23 02:05:54;;;;;;;2.53;1.83;;;19.10;44.90;;;;;;5123253;27;20051;-38
2021/04/23 02:08:22;;;;;;;1.65;1.50;;;19.10;44.90;;;;;;5124385;27;20051;-38
2021/04/23 02:10:58;;;;;;;4.38;2.30;;;19.10;44.90;;;;;;5110840;27;20533;-39
2021/04/23 02:13:27;;;;;;;2.78;1.80;;;19.10;44.90;;;;;;5112523;27;20051;-38
2021/04/23 02:15:54;;;;;;;3.40;1.83;;;19.10;44.90;;;;;;5117185;27;20055;-39
2021/04/23 02:18:25;;;;;;;2.60;1.80;;;19.10;44.90;;;;;;5114418;27;20052;-39
2021/04/23 02:20:52;;;;;;;2.28;1.48;;;19.10;44.90;;;;;;5119005;27;20070;-38
2021/04/23 02:23:21;;;;;;;3.42;1.77;;;19.10;45.00;;;;;;5110982;27;20129;-38
2021/04/23 02:25:53;;;;;;;3.53;1.90;;;19.10;44.90;;;;;;5121456;27;20054;-38
2021/04/23 02:28:20;;;;;;;3.05;1.90;;;19.10;44.90;;;;;;5111414;27;20047;-39
2021/04/23 02:31:04;;;;;;;2.40;1.73;;;19.10;44.90;;;;;;5110235;27;20053;-39
2021/04/23 02:33:32;;;;;;;2.80;1.67;;;19.10;44.90;;;;;;5124715;27;20094;-39
2021/04/23 02:35:59;;;;;;;2.45;1.85;;;19.10;44.90;;;;;;5115067;27;20130;-38
2021/04/23 02:38:27;;;;;;;3.63;2.05;;;19.10;44.90;;;;;;5115904;27;20062;-39
2021/04/23 02:40:55;;;;;;;3.08;1.80;;;19.10;44.90;;;;;;5119821;27;20063;-38
2021/04/23 02:43:26;;;;;;;2.70;1.50;;;19.10;44.90;;;;;;5116248;27;20058;-39
2021/04/23 02:45:53;;;;;;;2.30;1.77;;;19.10;44.90;;;;;;5116159;27;20049;-39
2021/04/23 02:48:23;;;;;;;2.80;1.77;;;19.10;44.90;;;;;;5113391;27;20047;-38
2021/04/23 02:50:54;;;;;;;2.60;1.90;;;19.10;44.90;;;;;;5109801;27;20051;-38
2021/04/23 02:53:22;;;;;;;4.45;1.60;;;19.10;44.90;;;;;;5110201;28;20059;-38
2021/04/23 02:55:48;;;;;;;3.08;1.90;;;19.10;44.90;;;;;;5117670;27;20055;-39
2021/04/23 02:58:18;;;;;;;1.80;1.58;;;19.10;44.80;;;;;;5127906;27;20047;-38
2021/04/23 03:00:53;;;;;;;2.78;2.00;;;19.10;44.80;;;;;;5127091;27;20053;-38
2021/04/23 03:03:22;;;;;;;2.47;1.92;;;19.10;44.80;;;;;;5119393;27;20078;-38
2021/04/23 03:05:51;;;;;;;2.95;1.90;;;19.10;44.80;;;;;;5115465;27;20090;-38
2021/04/23 03:08:19;;;;;;;2.53;1.92;;;19.10;44.80;;;;;;5117524;27;20046;-38
2021/04/23 03:10:58;;;;;;;2.22;1.40;;;19.10;44.80;;;;;;5116518;27;20060;-38
2021/04/23 03:13:27;;;;;;;2.70;1.90;;;19.10;44.80;;;;;;5126424;27;20044;-38
2021/04/23 03:15:55;;;;;;;2.78;1.92;;;19.10;44.80;;;;;;5117459;27;20051;-38
2021/04/23 03:18:25;;;;;;;2.55;1.45;;;19.10;44.80;;;;;;5122020;27;20051;-38
2021/04/23 03:20:54;;;;;;;2.28;1.65;;;19.10;44.80;;;;;;5117295;27;20070;-40
2021/04/23 03:23:21;;;;;;;3.15;1.60;;;19.10;44.80;;;;;;5106866;27;20043;-39
2021/04/23 03:25:48;;;;;;;2.45;1.60;;;19.10;44.80;;;;;;5108399;27;20100;-39
2021/04/23 03:28:15;;;;;;;2.50;1.85;;;19.10;44.80;;;;;;5125398;27;20048;-39
2021/04/23 03:30:43;;;;;;;2.35;1.70;;;19.10;44.80;;;;;;5095956;27;20047;-39
2021/04/23 03:33:12;;;;;;;2.20;1.75;;;19.10;44.80;;;;;;5129537;27;20054;-38
2021/04/23 03:35:41;;;;;;;2.08;1.52;;;19.10;44.80;;;;;;5121908;27;20047;-40
2021/04/23 03:38:09;;;;;;;2.15;1.80;;;19.10;44.80;;;;;;5121399;27;20047;-38
2021/04/23 03:40:37;;;;;;;2.70;1.65;;;19.10;44.80;;;;;;5120268;27;20526;-39
2021/04/23 03:43:05;;;;;;;2.15;1.60;;;19.10;44.80;;;;;;5125608;27;20103;-39
2021/04/23 03:45:33;;;;;;;3.45;1.90;;;19.10;44.80;;;;;;5123871;27;20199;-38
2021/04/23 03:48:01;;;;;;;2.67;1.80;;;19.10;44.80;;;;;;5117330;27;20402;-38
2021/04/23 03:50:32;;;;;;;2.33;1.83;;;19.10;44.80;;;;;;5115608;27;20044;-38
2021/04/23 03:53:01;;;;;;;3.10;1.42;;;19.10;44.80;;;;;;5113410;27;20047;-38
2021/04/23 03:55:33;;;;;;;2.38;1.65;;;19.10;44.80;;;;;;5116261;27;20051;-38
2021/04/23 03:58:01;;;;;;;2.70;1.73;;;19.10;44.80;;;;;;5132593;27;20486;-38
2021/04/23 04:00:33;;;;;;;2.17;1.55;;;19.10;44.80;;;;;;5118368;27;20047;-38
2021/04/23 04:03:00;;;;;;;2.38;1.70;;;19.10;44.80;;;;;;5120539;27;20479;-38
2021/04/23 04:05:26;;;;;;;2.05;1.58;;;19.10;44.80;;;;;;5118482;27;20052;-38
2021/04/23 04:07:56;;;;;;;2.03;1.55;;;19.10;44.80;;;;;;5125313;27;20044;-38
2021/04/23 04:10:28;;;;;;;3.10;1.83;;;19.10;44.80;;;;;;5118942;27;20043;-38
2021/04/23 04:12:55;;;;;;;2.75;2.00;;;19.10;44.80;;;;;;5118331;27;20470;-39
2021/04/23 04:15:24;;;;;;;2.50;1.75;;;19.10;44.80;;;;;;5114092;27;20066;-39
2021/04/23 04:17:51;;;;;;;2.90;1.70;;;19.10;44.80;;;;;;5115131;27;20058;-38
2021/04/23 04:20:19;;;;;;;2.40;1.80;;;19.10;44.80;;;;;;5115857;27;20044;-38
2021/04/23 04:22:46;;;;;;;2.28;1.42;;;19.10;44.80;;;;;;5117805;27;20550;-38
2021/04/23 04:25:18;;;;;;;2.72;1.70;;;19.10;44.80;;;;;;5129722;27;20050;-38
2021/04/23 04:27:45;;;;;;;2.33;1.80;;;19.10;44.80;;;;;;5121768;27;20081;-38
2021/04/23 04:30:12;;;;;;;2.42;1.58;;;19.10;44.80;;;;;;5118341;27;20561;-38
2021/04/23 04:32:40;;;;;;;1.52;1.40;;;19.10;44.80;;;;;;5113456;27;20047;-38
2021/04/23 04:35:08;;;;;;;2.30;1.58;;;19.10;44.80;;;;;;5119816;27;20054;-38
2021/04/23 04:37:34;;;;;;;2.30;1.70;;;19.10;44.80;;;;;;5115778;27;20044;-38
2021/04/23 04:40:02;;;;;;;2.22;1.77;;;19.10;44.80;;;;;;5113998;27;20053;-38
2021/04/23 04:42:29;;;;;;;2.20;1.83;;;19.10;44.80;;;;;;5120314;27;20047;-38
2021/04/23 04:45:00;;;;;;;2.70;1.70;;;19.10;44.80;;;;;;5128946;27;20043;-37
2021/04/23 04:47:29;;;;;;;2.10;1.55;;;19.10;44.80;;;;;;5124268;27;20059;-38
2021/04/23 04:49:58;;;;;;;2.28;1.65;;;19.10;44.80;;;;;;5116092;27;20055;-38
2021/04/23 04:52:25;;;;;;;2.35;1.90;;;19.10;44.80;;;;;;5115896;27;20050;-38
2021/04/23 04:54:52;;;;;;;2.35;1.75;;;19.10;44.80;;;;;;5114354;27;20055;-38
2021/04/23 04:57:20;;;;;;;2.75;1.73;;;19.10;44.80;;;;;;5116202;27;20041;-38
2021/04/23 04:59:48;;;;;;;1.48;1.38;;;19.10;44.80;;;;;;5116703;27;20047;-38
2021/04/23 05:02:16;;;;;;;2.00;1.80;;;19.10;44.80;;;;;;5113586;27;20044;-38
2021/04/23 05:04:43;;;;;;;2.17;1.60;;;19.10;44.80;;;;;;5117330;27;20052;-38
2021/04/23 05:07:10;;;;;;;1.77;1.50;;;19.10;44.80;;;;;;5117405;27;20054;-38
2021/04/23 05:09:37;;;;;;;2.03;1.65;;;19.10;44.70;;;;;;5116661;27;20054;-37
2021/04/23 05:12:04;;;;;;;3.22;1.65;;;19.10;44.70;;;;;;5114492;27;20048;-38
2021/04/23 05:14:31;;;;;;;2.22;1.83;;;19.10;45.00;;;;;;5130595;27;20051;-38
2021/04/23 05:16:57;;;;;;;2.58;1.52;;;19.10;44.80;;;;;;5114980;27;20050;-37
2021/04/23 05:19:24;;;;;;;1.75;1.48;;;19.10;44.80;;;;;;5117508;27;20054;-38
2021/04/23 05:21:51;;;;;;;2.58;1.60;;;19.10;44.80;;;;;;5098606;28;20050;-37
2021/04/23 05:24:18;;;;;;;2.92;1.73;;;19.10;44.80;;;;;;5114366;27;20399;-38
2021/04/23 05:26:45;;;;;;;2.10;1.60;;;19.10;44.70;;;;;;5127431;27;20043;-38
2021/04/23 05:29:11;;;;;;;2.00;1.60;;;19.10;44.70;;;;;;5113825;27;20126;-38
2021/04/23 05:31:38;;;;;;;2.90;1.60;;;19.10;45.30;;;;;;5127248;27;20438;-38
2021/04/23 05:34:05;;;;;;;1.85;1.60;;;19.10;44.70;;;;;;5114842;27;20134;-38
2021/04/23 05:36:32;;;;;;;2.05;1.67;;;19.10;44.70;;;;;;5121388;27;20047;-37
2021/04/23 05:38:59;;;;;;;2.42;1.50;;;19.10;44.70;;;;;;5123542;27;20040;-38
2021/04/23 05:41:26;;;;;;;2.83;1.65;;;19.10;44.70;;;;;;5115326;27;20044;-38
2021/04/23 05:43:52;;;;;;;2.85;1.90;;;19.10;44.70;;;;;;5117249;27;20050;-38
2021/04/23 05:46:19;;;;;;;3.13;1.55;;;19.10;44.70;;;;;;5115820;27;20050;-38
2021/04/23 05:48:47;;;;;;;1.85;1.60;;;19.10;44.70;;;;;;5114184;27;20056;-39
2021/04/23 05:51:15;;;;;;;2.22;1.25;;;19.10;44.70;;;;;;5124022;27;20047;-37
2021/04/23 05:53:42;;;;;;;2.10;1.52;;;19.10;44.70;;;;;;5117748;27;20125;-38
2021/04/23 05:56:10;;;;;;;1.88;1.45;;;19.10;44.70;;;;;;5113014;27;20079;-38
2021/04/23 05:58:36;;;;;;;2.55;1.60;;;19.10;44.70;;;;;;5117461;27;20055;-38
2021/04/23 06:01:03;;;;;;;1.85;1.60;;;19.10;44.70;;;;;;5099909;27;20039;-38
2021/04/23 06:03:30;;;;;;;2.13;1.60;;;19.10;44.70;;;;;;5115528;27;20035;-38
2021/04/23 06:05:57;;;;;;;1.88;1.65;;;19.10;44.70;;;;;;5111423;27;20500;-38
2021/04/23 06:08:24;;;;;;;1.88;1.42;;;19.10;44.70;;;;;;5112789;27;20048;-38
2021/04/23 06:10:51;;;;;;;2.00;1.52;;;19.10;44.70;;;;;;5114905;27;20046;-38
2021/04/23 06:13:18;;;;;;;2.08;1.40;;;19.10;44.70;;;;;;5117577;27;20071;-38
2021/04/23 06:15:45;;;;;;;2.53;1.67;;;19.10;44.70;;;;;;5096758;27;20065;-38
2021/04/23 06:18:12;;;;;;;2.17;1.55;;;19.10;44.70;;;;;;5114174;27;20137;-38
2021/04/23 06:20:41;;;;;;;2.08;1.38;;;19.10;44.60;;;;;;5112737;27;20043;-38
2021/04/23 06:23:14;;;;;;;2.00;1.60;;;19.10;44.60;;;;;;5113806;27;20048;-38
2021/04/23 06:25:41;;;;;;;1.63;1.30;;;19.10;44.60;;;;;;5129533;27;20552;-39
2021/04/23 06:28:09;;;;;;;1.55;1.15;;;19.10;44.60;;;;;;5123199;27;20444;-38
2021/04/23 06:30:37;;;;;;;2.85;1.75;;;19.10;44.60;;;;;;5115124;27;20043;-39
2021/04/23 06:33:13;;;;;;;2.20;1.58;;;19.10;44.60;;;;;;5112859;27;20055;-39
2021/04/23 06:35:41;;;;;;;1.83;1.50;;;19.10;44.60;;;;;;5115382;27;20044;-39
2021/04/23 06:38:08;;;;;;;2.67;1.60;;;19.10;44.60;;;;;;5123978;27;20042;-39
2021/04/23 06:40:35;;;;;;;2.78;1.67;;;19.10;44.60;;;;;;5115873;27;20049;-39
2021/04/23 06:43:03;;;;;;;2.75;1.45;;;19.10;44.60;;;;;;5111495;28;20040;-38
2021/04/23 06:45:30;;;;;;;2.80;1.30;;;19.10;44.60;;;;;;5117957;27;20074;-39
2021/04/23 06:47:58;;;;;;;2.13;1.58;;;19.10;44.60;;;;;;5114279;27;20055;-39
2021/04/23 06:50:26;;;;;;;2.85;1.80;;;19.10;44.60;;;;;;5125595;28;20126;-38
2021/04/23 06:52:53;;;;;;;2.03;1.50;;;19.10;44.60;;;;;;5119352;27;20051;-39
2021/04/23 06:55:22;;;;;;;1.90;1.48;;;19.10;44.60;;;;;;5119492;27;20047;-40
2021/04/23 06:57:50;;;;;;;2.45;1.40;;;19.10;44.60;;;;;;5127207;27;20058;-39
2021/04/23 07:00:21;;;;;;;2.08;1.48;;;19.10;44.60;;;;;;5125215;27;20040;-39
2021/04/23 07:02:48;;;;;;;2.45;1.40;;;19.20;44.60;;;;;;5123841;28;20053;-38
2021/04/23 07:05:16;;;;;;;2.40;1.52;;;19.10;44.60;;;;;;5114072;27;20086;-39
2021/04/23 07:07:43;;;;;;;1.42;1.23;;;19.20;44.60;;;;;;5115062;27;20051;-39
2021/04/23 07:10:14;;;;;;;1.80;1.40;;;19.20;44.60;;;;;;5113871;27;20562;-39
2021/04/23 07:12:41;;;;;;;2.85;1.67;;;19.10;44.50;;;;;;5107038;28;20411;-39
2021/04/23 07:15:11;;;;;;;2.15;1.50;;;19.20;44.60;;;;;;5118943;27;20047;-38
2021/04/23 07:17:38;;;;;;;1.90;1.50;;;19.20;44.60;;;;;;5113708;27;20048;-39
2021/04/23 07:20:25;;;;;;;2.13;1.52;;;19.20;44.60;;;;;;5116519;27;20130;-38
2021/04/23 07:22:52;;;;;;;2.53;1.40;;;19.20;44.60;;;;;;5095518;28;20530;-39
2021/04/23 07:25:21;;;;;;;2.20;1.35;;;19.20;44.60;;;;;;5110735;28;20071;-38
2021/04/23 07:27:49;;;;;;;2.25;1.70;;;19.20;44.50;;;;;;5112280;28;20082;-38
2021/04/23 07:30:25;;;;;;;1.73;1.35;;;19.20;44.50;;;;;;5094363;28;20138;-38
2021/04/23 07:32:52;;;;;;;1.60;1.50;;;19.20;44.50;;;;;;5112450;28;20055;-38
2021/04/23 07:35:19;;;;;;;3.00;2.03;;;19.20;44.50;;;;;;5120991;27;20134;-38
2021/04/23 07:37:45;;;;;;;2.08;1.42;;;19.20;44.50;;;;;;5120905;27;20440;-38
2021/04/23 07:40:16;;;;;;;1.73;1.40;;;19.20;44.50;;;;;;5115091;27;20048;-38
2021/04/23 07:42:43;;;;;;;1.75;1.40;;;19.20;44.50;;;;;;5112461;27;20410;-38
2021/04/23 07:45:11;;;;;;;2.30;1.52;;;19.20;44.60;;;;;;5110699;28;20919;-39
2021/04/23 07:47:38;;;;;;;3.08;1.65;;;19.20;44.50;;;;;;5117126;27;20051;-38
2021/04/23 07:50:07;;;;;;;2.00;1.20;;;19.20;45.10;;;;;;5116554;27;20077;-38
2021/04/23 07:52:35;;;;;;;2.28;1.60;;;19.20;44.50;;;;;;5126213;27;20134;-39
2021/04/23 07:55:05;;;;;;;1.70;1.27;;;19.20;44.50;;;;;;5120583;27;20047;-38
2021/04/23 07:57:34;;;;;;;3.40;1.70;;;19.20;44.50;;;;;;5115063;27;20043;-39
2021/04/23 08:00:01;;;;;;;1.70;1.33;;;19.20;44.40;;;;;;5099207;27;20073;-38
2021/04/23 08:02:28;;;;;;;1.42;1.20;;;19.20;44.50;;;;;;5097232;27;20406;-38
2021/04/23 08:04:55;;;;;;;2.22;1.60;;;19.20;44.50;;;;;;5115584;27;20048;-38
2021/04/23 08:07:44;;;;;;;1.98;1.52;;;19.20;44.50;;;;;;5114320;27;20056;-37
2021/04/23 08:10:16;;;;;;;2.42;1.60;;;19.20;44.40;;;;;;5125292;27;20043;-38
2021/04/23 08:12:45;;;;;;;2.40;1.75;;;19.20;44.40;;;;;;5115002;27;20138;-37
2021/04/23 08:15:13;;;;;;;1.83;1.30;;;19.20;44.40;;;;;;5118562;27;20070;-38
2021/04/23 08:17:40;;;;;;;2.42;1.73;;;19.20;44.50;;;;;;5122477;27;20044;-37
2021/04/23 08:20:09;;;;;;;2.83;1.50;;;19.20;44.40;;;;;;5119020;27;20043;-39
2021/04/23 08:22:36;;;;;;;2.70;1.80;;;19.20;44.40;;;;;;5130415;27;20043;-39
2021/04/23 08:25:06;;;;;;;1.95;1.38;;;19.20;44.40;;;;;;5115446;27;20047;-38
2021/04/23 08:27:33;;;;;;;2.25;1.30;;;19.20;44.40;;;;;;5126744;27;20052;-38
2021/04/23 08:30:00;;;;;;;2.08;1.60;;;19.20;44.40;;;;;;5117469;27;20047;-39
2021/04/23 08:32:32;;;;;;;2.28;1.40;;;19.30;44.50;;;;;;5130215;27;20267;-38
2021/04/23 08:34:59;;;;;;;1.48;1.30;;;19.20;44.50;;;;;;5120542;27;20692;-39
2021/04/23 08:37:26;;;;;;;1.80;1.20;;;19.30;44.50;;;;;;5115443;27;20044;-39
2021/04/23 08:39:53;;;;;;;2.13;1.50;;;19.30;44.60;;;;;;5119349;27;20048;-38
2021/04/23 08:42:22;;;;;;;2.38;1.40;;;19.30;44.50;;;;;;5131266;27;20487;-39
2021/04/23 08:44:49;;;;;;;2.15;1.42;;;19.30;44.50;;;;;;5132429;27;20114;-40
2021/04/23 08:47:16;;;;;;;2.17;1.33;;;19.30;44.50;;;;;;5132281;27;20043;-39
2021/04/23 08:49:44;;;;;;;2.00;1.30;;;19.30;44.50;;;;;;5115523;27;20051;-38
2021/04/23 08:52:12;;;;;;;2.50;1.50;;;19.30;44.60;;;;;;5124080;27;20062;-39
2021/04/23 08:54:40;;;;;;;3.50;1.52;;;19.30;44.60;;;;;;5120571;27;20054;-38
2021/04/23 08:57:07;;;;;;;1.70;1.35;;;19.30;44.60;;;;;;5120289;27;20039;-38
2021/04/23 08:59:33;;;;;;;2.40;1.33;;;19.30;44.60;;;;;;5126434;27;20513;-38
2021/04/23 09:02:01;;;;;;;2.08;1.40;;;19.30;44.60;;;;;;5124400;27;20406;-39
2021/04/23 09:04:29;;;;;;;1.52;1.20;;;19.30;44.60;;;;;;5112909;27;20051;-39
2021/04/23 09:07:07;;;;;;;3.22;1.70;;;19.30;44.60;;;;;;5119050;27;20058;-38
2021/04/23 09:09:40;;;;;;;2.53;1.60;;;19.30;44.60;;;;;;5098544;27;20058;-38
2021/04/23 09:12:18;;;;;;;1.70;1.35;;;19.30;44.60;;;;;;5114827;27;20055;-38
2021/04/23 09:14:51;;;;;;;2.28;1.25;;;19.30;44.60;;;;;;5114419;27;20055;-38
2021/04/23 09:17:23;;;;;;;2.38;1.40;;;19.30;44.60;;;;;;5122384;27;20071;-39
2021/04/23 09:19:52;;;;;;;1.73;1.38;;;19.30;44.60;;;;;;5114036;27;20113;-39
2021/04/23 09:22:18;;;;;;;1.65;1.23;;;19.30;44.60;;;;;;5114428;27;20131;-38
2021/04/23 09:24:57;;;;;;;2.03;1.50;;;19.30;44.60;;;;;;5118449;27;20039;-38
2021/04/23 09:27:31;;;;;;;2.42;1.40;;;19.30;44.70;;;;;;5126903;27;20048;-38
2021/04/23 09:30:03;;;;;;;2.25;1.40;;;19.30;44.60;;;;;;5114775;27;20058;-38
2021/04/23 09:32:38;;;;;;;2.00;1.48;;;19.30;44.60;;;;;;5115482;27;20167;-38
2021/04/23 09:35:16;;;;;;;2.00;1.30;;;19.30;44.60;;;;;;5123633;27;20469;-38
2021/04/23 09:37:45;;;;;;;1.67;1.45;;;19.30;44.60;;;;;;5115100;27;20067;-39
2021/04/23 09:40:19;;;;;;;2.65;1.63;;;19.30;44.70;;;;;;5114830;27;20050;-39
2021/04/23 09:42:50;;;;;;;2.63;1.35;;;19.30;44.70;;;;;;5114018;27;20087;-39
2021/04/23 09:45:20;;;;;;;3.28;1.30;;;19.40;44.80;;;;;;5114532;27;20059;-38
2021/04/23 09:47:47;;;;;;;2.78;1.60;;;19.40;44.70;;;;;;5114583;27;20447;-38
2021/04/23 09:50:17;;;;;;;2.97;1.40;;;19.40;44.70;;;;;;5116523;27;20051;-39
2021/04/23 09:52:51;;;;;;;2.30;1.20;;;19.40;44.70;;;;;;5112564;27;20540;-38
2021/04/23 09:55:33;;;;;;;1.80;1.55;;;19.40;44.70;;;;;;5116854;27;20411;-38
2021/04/23 09:58:02;;;;;;;1.45;1.20;;;19.40;44.80;;;;;;5113512;27;20047;-39
2021/04/23 10:00:32;;;;;;;2.25;1.38;;;19.40;44.80;;;;;;5112172;27;20047;-39
2021/04/23 10:03:01;;;;;;;1.58;1.20;;;19.40;44.80;;;;;;5122752;27;20039;-38
2021/04/23 10:05:35;;;;;;;1.67;1.40;;;19.40;44.80;;;;;;5118333;27;20044;-38
2021/04/23 10:08:04;;;;;;;;;;;19.40;44.80;;;;;;5115502;27;20047;-38
2021/04/23 10:10:31;;;;;;;1.85;1.30;;;19.40;44.80;;;;;;5113894;27;19919;-38
2021/04/23 10:13:06;;;;;;;1.58;1.20;;;19.40;44.80;;;;;;5113726;27;20051;-38
2021/04/23 10:15:40;;;;;;;2.50;1.52;;;19.40;44.80;;;;;;5120627;27;20059;-39
2021/04/23 10:18:08;;;;;;;2.67;1.50;;;19.40;44.80;;;;;;5112164;27;20050;-38
2021/04/23 10:20:40;;;;;;;2.50;1.40;;;19.40;44.80;;;;;;5113221;27;20050;-38
2021/04/23 10:23:10;;;;;;;2.45;1.35;;;19.40;44.80;;;;;;5113129;27;20048;-38
2021/04/23 10:25:38;;;;;;;2.25;1.50;;;19.40;44.80;;;;;;5124271;27;20122;-38
2021/04/23 10:28:10;;;;;;;1.70;1.30;;;19.40;44.80;;;;;;5119325;27;20054;-38
2021/04/23 10:30:42;;;;;;;1.85;1.00;;;19.40;44.80;;;;;;5119748;27;20048;-38
2021/04/23 10:33:14;;;;;;;1.73;1.40;;;19.40;44.80;;;;;;5112203;27;20148;-38
2021/04/23 10:35:42;;;;;;;2.30;1.33;;;19.40;44.80;;;;;;5115769;27;20039;-38
2021/04/23 10:38:16;;;;;;;2.53;1.50;;;19.40;44.80;;;;;;5126186;27;20050;-37
2021/04/23 10:40:50;;;;;;;1.88;1.40;;;19.40;44.80;;;;;;5118874;27;20047;-38
2021/04/23 10:43:19;;;;;;;2.38;1.40;;;19.40;44.80;;;;;;5114351;27;20051;-38
2021/04/23 10:45:50;;;;;;;1.70;1.30;;;19.40;44.80;;;;;;5117973;27;20071;-37
2021/04/23 10:48:17;;;;;;;1.73;1.20;;;19.40;44.80;;;;;;5113728;27;20066;-37
2021/04/23 10:50:50;;;;;;;2.47;1.63;;;19.40;44.80;;;;;;5121286;27;20054;-38
2021/04/23 10:53:44;;;;;;;2.40;1.23;;;19.40;44.80;;;;;;5121823;28;20061;-37
2021/04/23 10:56:27;;;;;;;3.20;1.40;;;19.40;44.80;;;;;;5113379;27;20487;-37
2021/04/23 10:59:01;;;;;;;2.35;1.30;;;19.40;44.80;;;;;;5112237;28;20039;-37
2021/04/23 11:01:29;;;;;;;;;;;19.40;44.80;;;;;;5117030;28;20127;-37
2021/04/23 11:04:00;;;;;;;1.83;1.30;;;19.40;44.80;;;;;;5112888;28;19927;-38
2021/04/23 11:06:30;;;;;;;2.78;1.52;;;19.40;44.80;;;;;;5111663;28;20411;-38
2021/04/23 11:09:00;;;;;;;1.10;1.00;;;19.40;44.80;;;;;;5095393;28;20059;-38
2021/04/23 11:11:32;;;;;;;2.08;1.30;;;19.40;44.80;;;;;;5124238;27;20050;-38
2021/04/23 11:14:27;;;;;;;1.80;1.30;;;19.40;44.80;;;;;;5113441;28;20056;-38
2021/04/23 11:17:15;;;;;;;2.17;1.25;;;19.40;44.80;;;;;;5122258;27;20050;-37
2021/04/23 11:19:43;;;;;;;2.28;1.58;;;19.40;44.80;;;;;;5124050;27;20162;-37
2021/04/23 11:22:14;;;;;;;2.30;1.48;;;19.40;44.80;;;;;;5119547;27;20039;-37
2021/04/23 11:25:18;;;;;;;1.73;1.10;;;19.30;44.70;;;;;;5117651;27;20051;-37
2021/04/23 11:28:02;;;;;;;1.90;1.38;;;19.40;44.80;;;;;;5123406;27;20043;-37
2021/04/23 11:31:06;;;;;;;2.33;1.40;;;19.40;44.80;;;;;;5127695;27;20050;-37
2021/04/23 11:33:46;;;;;;;;;;;19.40;44.80;;;;;;5118484;27;20521;-37
2021/04/23 11:36:24;;;;;;;1.50;1.25;;;19.40;44.80;;;;;;5122006;27;20294;-37
2021/04/23 11:39:14;;;;;;;1.70;1.10;;;19.40;44.80;;;;;;5122253;27;20047;-37
2021/04/23 11:42:17;;;;;;;1.92;1.10;;;19.40;44.80;;;;;;5104480;27;20054;-37
2021/04/23 11:44:51;;;;;;;1.48;1.02;;;19.40;44.80;;;;;;5116579;27;20407;-37
2021/04/23 11:47:25;;;;;;;2.05;1.40;;;19.40;44.80;;;;;;5120750;27;20062;-37
2021/04/23 11:50:16;;;;;;;2.75;1.50;;;19.40;44.80;;;;;;5125894;27;20055;-37
2021/04/23 11:52:56;;;;;;;2.20;1.25;;;19.40;44.80;;;;;;5114055;27;20100;-37
2021/04/23 11:55:26;;;;;;;2.50;1.60;;;19.40;44.80;;;;;;5118062;27;20048;-37
2021/04/23 11:58:03;;;;;;;2.00;1.27;;;19.40;44.80;;;;;;5124171;27;20071;-37
2021/04/23 12:00:31;;;;;;;1.55;1.27;;;19.40;44.80;;;;;;5114438;27;20043;-37
2021/04/23 12:03:05;;;;;;;1.52;1.02;;;19.40;44.80;;;;;;5131434;27;20058;-38
2021/04/23 12:05:35;;;;;;;1.77;1.23;;;19.40;44.70;;;;;;5114216;27;20137;-37
2021/04/23 12:08:04;;;;;;;2.30;1.20;;;19.40;44.80;;;;;;5114425;27;20134;-37
2021/04/23 12:10:34;;;;;;;2.70;1.58;;;19.30;44.70;;;;;;5118605;27;20126;-38
2021/04/23 12:13:01;;;;;;;2.08;1.27;;;19.40;44.70;;;;;;5122491;27;20044;-38
2021/04/23 12:15:31;;;;;;;1.83;1.08;;;19.40;44.70;;;;;;5116539;27;20055;-39
2021/04/23 12:18:00;;;;;;;1.48;1.13;;;19.40;44.70;;;;;;5115743;27;20405;-38
2021/04/23 12:20:37;;;;;;;2.47;1.48;;;19.40;44.70;;;;;;5123788;27;20081;-39
2021/04/23 12:23:06;;;;;;;1.45;1.30;;;19.40;44.70;;;;;;5114802;27;20035;-39
2021/04/23 12:25:36;;;;;;;2.22;1.33;;;19.40;44.70;;;;;;5115761;27;20500;-39
2021/04/23 12:28:19;;;;;;;2.22;1.10;;;19.40;44.70;;;;;;5115416;27;20416;-38
2021/04/23 12:30:47;;;;;;;2.55;1.35;;;19.40;44.70;;;;;;5121343;27;20058;-39
2021/04/23 12:33:14;;;;;;;2.38;1.30;;;19.40;44.70;;;;;;5118466;27;20443;-38
2021/04/23 12:35:45;;;;;;;2.83;1.30;;;19.40;44.70;;;;;;5120466;27;20490;-39
2021/04/23 12:38:14;;;;;;;1.75;1.27;;;19.40;44.70;;;;;;5126782;27;20383;-39
2021/04/23 12:40:44;;;;;;;3.08;1.27;;;19.40;44.70;;;;;;5127971;27;20043;-39
2021/04/23 12:43:22;;;;;;;2.10;1.40;;;19.40;44.70;;;;;;5115106;27;20040;-40
2021/04/23 12:45:54;;;;;;;2.50;1.42;;;19.40;44.70;;;;;;5116026;27;20051;-39
2021/04/23 12:48:24;;;;;;;1.40;1.13;;;19.40;44.70;;;;;;5112166;27;20051;-40
2021/04/23 12:50:53;;;;;;;2.25;1.48;;;19.40;44.70;;;;;;5125992;27;20073;-38
2021/04/23 12:53:21;;;;;;;1.38;1.00;;;19.40;44.70;;;;;;5115412;27;20407;-40
2021/04/23 12:55:48;;;;;;;1.30;1.08;;;19.40;44.70;;;;;;5114756;27;20069;-37
2021/04/23 12:58:16;;;;;;;3.03;1.52;;;19.40;44.70;;;;;;5116248;27;20097;-39
2021/04/23 13:00:43;;;;;;;1.45;1.23;;;19.40;44.70;;;;;;5096868;28;20043;-38
2021/04/23 13:03:11;;;;;;;1.98;1.35;;;19.40;44.70;;;;;;5115063;27;20047;-38